Time;durP1;ratioP1;P1;durP2;ratioP2;P2;SDS_P1;SDS_P2;PMS_P1;PMS_P2;Temp;Humidity;BMP_temperature;BMP_pressure;BME280_temperature;BME280_humidity;BME280_pressure;Samples;Min_cycle;Max_cycle;Signal;HPM_P1;HPM_P2
2023/03/25 00:01:46;;;;;;;6.82;5.90;;;;;;;8.76;100.00;99896.34;10301439;28;20061;-69
2023/03/25 00:06:43;;;;;;;10.60;6.13;;;;;;;8.66;100.00;99900.22;10290436;28;20052;-74
2023/03/25 00:11:40;;;;;;;9.32;6.25;;;;;;;8.53;100.00;99902.00;10306642;28;20045;-73
2023/03/25 00:16:36;;;;;;;11.00;7.10;;;;;;;8.47;100.00;99906.03;10310990;28;20470;-73
2023/03/25 00:21:33;;;;;;;11.65;7.13;;;;;;;8.53;100.00;99901.22;10288921;28;20052;-74
2023/03/25 00:26:31;;;;;;;7.32;6.45;;;;;;;8.60;100.00;99902.31;10309948;28;20136;-69
2023/03/25 00:31:27;;;;;;;7.78;6.43;;;;;;;8.46;100.00;99890.81;10297449;28;20417;-70
2023/03/25 00:36:24;;;;;;;8.05;6.80;;;;;;;8.37;100.00;99890.00;10301022;28;20045;-70
2023/03/25 00:41:26;;;;;;;10.45;5.95;;;;;;;8.36;100.00;99886.47;10300676;28;20052;-73
2023/03/25 00:46:25;;;;;;;;;;;;;;;8.35;100.00;99878.63;10284967;28;20044;-73
2023/03/25 00:51:23;;;;;;;11.85;7.65;;;;;;;8.33;100.00;99881.69;10299983;28;19920;-73
2023/03/25 00:56:23;;;;;;;9.50;6.80;;;;;;;8.39;100.00;99879.56;10302122;28;20044;-72
2023/03/25 01:01:22;;;;;;;10.20;6.90;;;;;;;8.51;100.00;99893.34;10291281;28;20527;-69
2023/03/25 01:06:20;;;;;;;9.73;6.32;;;;;;;8.61;100.00;99875.88;10304538;28;20057;-70
2023/03/25 01:11:24;;;;;;;10.52;6.90;;;;;;;8.63;100.00;99874.44;10298856;28;20049;-69
2023/03/25 01:16:21;;;;;;;11.75;6.95;;;;;;;8.67;100.00;99869.13;10305694;28;20514;-73
2023/03/25 01:21:18;;;;;;;9.05;6.10;;;;;;;8.74;100.00;99876.78;10290415;28;20045;-74
2023/03/25 01:26:14;;;;;;;15.02;6.47;;;;;;;8.76;100.00;99888.97;10301027;28;20083;-74
2023/03/25 01:31:13;;;;;;;11.32;6.85;;;;;;;8.80;100.00;99862.66;10282518;28;20167;-70
2023/03/25 01:36:11;;;;;;;10.20;6.28;;;;;;;8.83;100.00;99864.72;10300370;28;20045;-71
2023/03/25 01:41:09;;;;;;;10.20;6.82;;;;;;;8.84;100.00;99869.06;10294916;28;20040;-71
2023/03/25 01:46:16;;;;;;;11.60;7.45;;;;;;;8.82;100.00;99865.06;10290191;28;20128;-73
2023/03/25 01:51:17;;;;;;;12.57;6.18;;;;;;;8.84;100.00;99843.72;10283314;28;20677;-73
2023/03/25 01:56:18;;;;;;;12.05;6.40;;;;;;;8.75;100.00;99837.50;10286416;28;20956;-73
2023/03/25 02:01:20;;;;;;;7.50;6.70;;;;;;;8.63;100.00;99830.84;10280986;28;20053;-71
2023/03/25 02:06:27;;;;;;;9.45;6.47;;;;;;;8.60;100.00;99836.91;10297680;28;20036;-71
2023/03/25 02:11:27;;;;;;;9.30;6.45;;;;;;;8.59;100.00;99838.06;10309344;28;20505;-71
2023/03/25 02:16:41;;;;;;;10.07;6.25;;;;;;;8.64;100.00;99826.19;10295012;28;20078;-73
2023/03/25 02:22:00;;;;;;;11.18;6.97;;;;;;;8.66;100.00;99825.81;10287015;28;20518;-74
2023/03/25 02:27:27;;;;;;;9.40;7.00;;;;;;;8.67;100.00;99819.28;10292581;28;20072;-71
2023/03/25 02:33:04;;;;;;;12.63;6.57;;;;;;;8.52;100.00;99818.69;10295786;28;20101;-72
2023/03/25 02:38:06;;;;;;;11.98;6.32;;;;;;;8.44;100.00;99816.78;10303099;28;20418;-72
2023/03/25 02:43:11;;;;;;;11.57;6.55;;;;;;;8.30;100.00;99816.94;10300437;28;20462;-73
2023/03/25 02:48:26;;;;;;;11.70;6.20;;;;;;;8.28;100.00;99807.50;10293712;28;20522;-72
2023/03/25 02:53:32;;;;;;;10.88;5.75;;;;;;;8.37;100.00;99800.09;10305004;28;20037;-71
2023/03/25 02:58:29;;;;;;;11.98;6.07;;;;;;;8.42;100.00;99791.78;10294611;28;20061;-69
2023/03/25 03:03:27;;;;;;;11.13;6.18;;;;;;;8.45;100.00;99798.50;10297534;28;20063;-69
2023/03/25 03:08:48;;;;;;;9.55;5.90;;;;;;;8.44;100.00;99789.53;10284909;28;20049;-71
2023/03/25 03:14:09;;;;;;;10.68;6.43;;;;;;;8.40;100.00;99777.69;10300755;28;20036;-74
2023/03/25 03:19:45;;;;;;;9.20;5.95;;;;;;;8.39;100.00;99793.19;10295112;28;20041;-74
2023/03/25 03:24:51;;;;;;;8.55;5.25;;;;;;;8.38;100.00;99780.72;10310805;28;20051;-74
2023/03/25 03:29:52;;;;;;;7.65;6.75;;;;;;;8.43;100.00;99782.50;10290359;28;20048;-74
2023/03/25 03:34:53;;;;;;;9.55;6.65;;;;;;;8.41;100.00;99784.75;10294139;28;20040;-73
2023/03/25 03:39:51;;;;;;;9.45;6.20;;;;;;;8.35;100.00;99780.56;10300398;28;20533;-74
2023/03/25 03:44:53;;;;;;;10.07;5.93;;;;;;;8.31;100.00;99795.94;10305015;28;20538;-72
2023/03/25 03:49:53;;;;;;;9.23;5.47;;;;;;;8.33;100.00;99782.81;10313412;28;20121;-70
2023/03/25 03:55:12;;;;;;;7.88;5.97;;;;;;;8.31;100.00;99780.44;10306331;28;20090;-70
2023/03/25 04:00:15;;;;;;;13.10;6.15;;;;;;;8.27;100.00;99778.69;10299607;28;20060;-71
2023/03/25 04:05:15;;;;;;;7.97;6.10;;;;;;;8.33;100.00;99771.91;10299557;28;20072;-71
2023/03/25 04:10:17;;;;;;;9.23;6.65;;;;;;;8.29;100.00;99790.84;10306440;28;20048;-72
2023/03/25 04:15:14;;;;;;;7.55;5.47;;;;;;;8.27;100.00;99792.28;10313764;28;20045;-71
2023/03/25 04:20:14;;;;;;;8.30;6.40;;;;;;;8.25;100.00;99783.66;10301509;28;20084;-73
2023/03/25 04:25:12;;;;;;;14.30;6.30;;;;;;;8.28;100.00;99780.25;10302617;28;20090;-74
2023/03/25 04:30:10;;;;;;;10.75;6.15;;;;;;;8.32;100.00;99782.00;10297485;28;20048;-73
2023/03/25 04:35:08;;;;;;;9.68;5.60;;;;;;;8.34;100.00;99785.22;10301935;28;20127;-73
2023/03/25 04:40:05;;;;;;;8.18;5.80;;;;;;;8.40;100.00;99783.13;10298595;28;20044;-73
2023/03/25 04:45:04;;;;;;;9.85;5.57;;;;;;;8.12;100.00;99809.94;10296624;28;20048;-73
2023/03/25 04:50:01;;;;;;;11.10;6.05;;;;;;;7.62;100.00;99830.31;10297917;28;20060;-73
2023/03/25 04:54:57;;;;;;;8.88;5.82;;;;;;;7.43;100.00;99821.66;10307678;28;20052;-79
2023/03/25 04:59:54;;;;;;;8.48;6.97;;;;;;;7.35;100.00;99812.34;10290072;28;20040;-80
2023/03/25 05:04:52;;;;;;;10.30;5.85;;;;;;;7.31;100.00;99820.38;10313794;28;20195;-77
2023/03/25 05:09:50;;;;;;;12.23;6.50;;;;;;;7.32;100.00;99834.75;10298632;28;20497;-76
2023/03/25 05:14:47;;;;;;;11.18;6.32;;;;;;;7.27;100.00;99824.84;10293522;28;20039;-76
2023/03/25 05:19:44;;;;;;;14.77;6.32;;;;;;;7.25;100.00;99837.94;10280809;28;20044;-78
2023/03/25 05:24:43;;;;;;;11.45;5.70;;;;;;;7.23;100.00;99851.06;10298006;28;20079;-78
2023/03/25 05:29:43;;;;;;;12.77;6.35;;;;;;;7.21;100.00;99853.28;10284542;28;20041;-77
2023/03/25 05:34:40;;;;;;;12.27;6.55;;;;;;;7.22;100.00;99860.34;10303140;28;20502;-76
2023/03/25 05:39:37;;;;;;;12.50;6.10;;;;;;;7.24;100.00;99863.53;10307258;28;20071;-76
2023/03/25 05:44:33;;;;;;;13.73;6.20;;;;;;;7.21;100.00;99866.88;10286523;28;20037;-74
2023/03/25 05:49:29;;;;;;;9.98;5.45;;;;;;;7.19;100.00;99876.47;10300949;28;20441;-74
2023/03/25 05:54:27;;;;;;;9.55;5.70;;;;;;;7.19;100.00;99866.38;10310762;28;20041;-81
2023/03/25 05:59:23;;;;;;;19.15;7.60;;;;;;;7.18;100.00;99867.50;10305493;28;20075;-82
2023/03/25 06:04:20;;;;;;;8.48;6.13;;;;;;;7.20;100.00;99872.66;10283487;28;20041;-80
2023/03/25 06:09:17;;;;;;;7.40;6.10;;;;;;;7.20;100.00;99867.22;10309867;28;20045;-80
2023/03/25 06:14:14;;;;;;;11.80;6.10;;;;;;;7.30;100.00;99862.25;10300317;28;20163;-76
2023/03/25 06:19:10;;;;;;;11.32;5.95;;;;;;;7.31;100.00;99863.88;10296611;28;20040;-79
2023/03/25 06:24:07;;;;;;;8.63;5.70;;;;;;;7.32;100.00;99857.31;10285078;28;20041;-71
2023/03/25 06:29:03;;;;;;;9.73;5.20;;;;;;;7.36;100.00;99871.88;10307742;28;20057;-71
2023/03/25 06:34:00;;;;;;;16.80;6.75;;;;;;;7.37;100.00;99873.47;10292365;28;20120;-71
2023/03/25 06:38:57;;;;;;;13.65;6.43;;;;;;;7.38;100.00;99863.41;10281820;28;20119;-71
2023/03/25 06:43:54;;;;;;;8.75;6.35;;;;;;;7.41;100.00;99872.84;10297727;28;20717;-77
2023/03/25 06:48:50;;;;;;;11.98;7.35;;;;;;;7.40;100.00;99865.78;10296566;28;20068;-75
2023/03/25 06:53:47;;;;;;;10.95;5.93;;;;;;;7.42;100.00;99863.56;10289737;28;20048;-76
2023/03/25 06:58:43;;;;;;;13.98;6.40;;;;;;;7.47;100.00;99866.13;10292722;28;20056;-76
2023/03/25 07:03:40;;;;;;;11.50;6.13;;;;;;;7.56;100.00;99866.94;10296320;28;20449;-73
2023/03/25 07:08:36;;;;;;;9.07;6.93;;;;;;;7.36;100.00;99880.03;10284943;28;20040;-73
2023/03/25 07:13:33;;;;;;;9.57;5.70;;;;;;;7.15;100.00;99881.75;10301176;28;20054;-75
2023/03/25 07:18:30;;;;;;;11.52;6.30;;;;;;;7.14;100.00;99885.56;10314545;28;20052;-75
2023/03/25 07:23:26;;;;;;;11.35;6.40;;;;;;;7.37;100.00;99884.34;10312220;28;20097;-75
2023/03/25 07:28:23;;;;;;;12.18;6.80;;;;;;;7.66;100.00;99885.69;10302552;28;20076;-77
2023/03/25 07:33:20;;;;;;;12.35;7.50;;;;;;;7.77;100.00;99884.28;10303536;28;20060;-78
2023/03/25 07:38:17;;;;;;;9.70;7.13;;;;;;;7.90;100.00;99873.53;10295952;28;20037;-76
2023/03/25 07:43:13;;;;;;;14.80;7.22;;;;;;;7.98;100.00;99886.34;10312385;28;20068;-74
2023/03/25 07:48:13;;;;;;;8.55;5.55;;;;;;;7.98;100.00;99870.00;10296088;28;20044;-78
2023/03/25 07:53:09;;;;;;;7.18;5.43;;;;;;;8.01;100.00;99869.38;10306830;28;20045;-77
2023/03/25 07:58:06;;;;;;;15.88;5.05;;;;;;;8.02;100.00;99857.34;10312518;28;20057;-76
2023/03/25 08:03:03;;;;;;;11.90;4.97;;;;;;;8.25;100.00;99854.44;10305383;28;20570;-77
2023/03/25 08:08:00;;;;;;;8.10;5.00;;;;;;;8.29;100.00;99852.69;10306001;28;20567;-77
2023/03/25 08:12:56;;;;;;;9.43;5.40;;;;;;;8.27;100.00;99860.38;10307878;28;20068;-78
2023/03/25 08:17:53;;;;;;;12.50;4.78;;;;;;;8.18;100.00;99853.00;10302351;28;20086;-77
2023/03/25 08:22:50;;;;;;;10.77;4.88;;;;;;;8.24;100.00;99872.72;10303354;28;20067;-75
2023/03/25 08:27:46;;;;;;;13.70;6.70;;;;;;;8.31;100.00;99873.03;10320520;28;20068;-74
2023/03/25 08:32:44;;;;;;;12.50;5.55;;;;;;;8.60;100.00;99885.97;10308620;28;20063;-75
2023/03/25 08:37:41;;;;;;;8.05;4.88;;;;;;;8.80;100.00;99861.88;10295659;28;20049;-74
2023/03/25 08:42:38;;;;;;;9.23;5.63;;;;;;;8.70;100.00;99856.75;10293597;28;20075;-74
2023/03/25 08:47:34;;;;;;;13.82;5.90;;;;;;;8.68;100.00;99848.09;10310859;28;20079;-74
2023/03/25 08:52:31;;;;;;;10.95;5.43;;;;;;;8.49;100.00;99862.91;10300686;28;20045;-74
2023/03/25 08:57:27;;;;;;;8.55;4.85;;;;;;;8.40;100.00;99859.41;10296323;28;20090;-72
2023/03/25 09:02:24;;;;;;;12.45;5.35;;;;;;;8.04;100.00;99874.16;10318448;28;20517;-75
2023/03/25 09:07:22;;;;;;;9.35;6.07;;;;;;;7.83;100.00;99874.00;10306092;28;20072;-75
2023/03/25 09:12:19;;;;;;;12.98;5.35;;;;;;;7.77;100.00;99902.50;10293672;28;20079;-74
2023/03/25 09:17:15;;;;;;;6.35;4.65;;;;;;;7.55;100.00;99896.06;10310093;28;20041;-74
2023/03/25 09:22:11;;;;;;;8.57;5.30;;;;;;;7.36;100.00;99907.22;10299153;28;20703;-73
2023/03/25 09:27:08;;;;;;;8.35;4.80;;;;;;;7.29;100.00;99915.06;10293343;28;20044;-74
2023/03/25 09:32:05;;;;;;;7.93;5.47;;;;;;;7.22;100.00;99903.84;10305516;28;20053;-73
2023/03/25 09:37:02;;;;;;;6.45;4.90;;;;;;;7.31;100.00;99903.84;10293961;28;20148;-71
2023/03/25 09:42:36;;;;;;;5.75;5.13;;;;;;;7.25;100.00;99908.63;10304036;28;20060;-73
2023/03/25 09:47:34;;;;;;;7.43;4.70;;;;;;;7.18;100.00;99902.84;10285130;28;20044;-72
2023/03/25 09:52:53;;;;;;;8.85;4.65;;;;;;;7.14;100.00;99912.75;10291663;28;20083;-73
2023/03/25 09:57:56;;;;;;;6.55;4.43;;;;;;;7.10;100.00;99892.75;10297432;28;20071;-72
2023/03/25 10:03:00;;;;;;;5.70;4.35;;;;;;;7.14;100.00;99886.38;10299979;28;20048;-72
2023/03/25 10:08:08;;;;;;;6.70;4.28;;;;;;;7.43;100.00;99881.50;10296574;28;20048;-72
2023/03/25 10:13:21;;;;;;;5.32;3.70;;;;;;;7.73;100.00;99886.03;10292032;28;20422;-72
2023/03/25 10:18:32;;;;;;;6.05;4.20;;;;;;;7.90;100.00;99889.88;10294023;28;20800;-73
2023/03/25 10:23:42;;;;;;;5.50;3.42;;;;;;;8.17;100.00;99875.94;10319838;28;20048;-73
2023/03/25 10:28:55;;;;;;;7.35;3.90;;;;;;;8.83;100.00;99877.56;10289581;28;20454;-73
2023/03/25 10:33:55;;;;;;;7.22;3.97;;;;;;;9.83;100.00;99889.66;10290552;28;20854;-71
2023/03/25 10:38:56;;;;;;;10.45;5.30;;;;;;;9.70;100.00;99871.66;10295938;28;20037;-71
2023/03/25 10:43:53;;;;;;;11.52;5.22;;;;;;;9.23;100.00;99866.31;10304456;28;20049;-71
2023/03/25 10:48:50;;;;;;;10.18;5.60;;;;;;;9.60;100.00;99855.66;10296560;28;20137;-71
2023/03/25 10:53:51;;;;;;;7.35;4.60;;;;;;;9.55;100.00;99864.03;10305724;28;20051;-71
2023/03/25 10:58:55;;;;;;;8.50;4.53;;;;;;;9.30;100.00;99847.50;10295665;28;20468;-70
2023/03/25 11:03:52;;;;;;;8.82;4.93;;;;;;;9.18;100.00;99850.13;10294209;28;20122;-70
2023/03/25 11:09:31;;;;;;;9.45;4.53;;;;;;;9.04;100.00;99851.16;10307689;28;20051;-71
2023/03/25 11:14:29;;;;;;;10.35;5.38;;;;;;;8.74;100.00;99879.50;10294714;28;20135;-70
2023/03/25 11:19:29;;;;;;;10.38;5.20;;;;;;;8.30;100.00;99892.41;10287769;28;20807;-70
2023/03/25 11:24:31;;;;;;;8.52;5.00;;;;;;;7.96;100.00;99921.22;10292745;28;20044;-70
2023/03/25 11:29:29;;;;;;;9.57;4.77;;;;;;;7.82;100.00;99942.34;10301325;28;20036;-71
2023/03/25 11:34:26;;;;;;;5.35;4.70;;;;;;;7.74;100.00;99935.78;10305423;28;21035;-70
2023/03/25 11:39:29;;;;;;;7.22;5.20;;;;;;;7.88;100.00;99919.31;10294542;28;20052;-70
2023/03/25 11:44:30;;;;;;;7.40;5.75;;;;;;;8.59;100.00;99911.63;10305812;28;20048;-71
2023/03/25 11:49:28;;;;;;;4.90;4.05;;;;;;;8.68;100.00;99910.78;10301672;28;20091;-71
2023/03/25 11:54:26;;;;;;;5.00;3.75;;;;;;;8.90;100.00;99887.97;10279673;28;20053;-70
2023/03/25 11:59:26;;;;;;;5.63;4.10;;;;;;;9.08;100.00;99877.78;10310570;28;20098;-70
2023/03/25 12:04:23;;;;;;;4.57;4.00;;;;;;;10.64;100.00;99876.59;10297180;28;20433;-71
2023/03/25 12:09:20;;;;;;;6.38;4.38;;;;;;;11.78;100.00;99845.75;10305906;28;20045;-71
2023/03/25 12:14:33;;;;;;;8.15;4.47;;;;;;;10.62;100.00;99837.84;10291319;28;20656;-71
2023/03/25 12:19:38;;;;;;;7.10;4.43;;;;;;;9.63;100.00;99850.34;10301086;28;20585;-71
2023/03/25 12:25:25;;;;;;;6.50;4.72;;;;;;;9.26;100.00;99846.56;10306919;28;20411;-70
2023/03/25 12:30:45;;;;;;;6.20;4.43;;;;;;;9.33;100.00;99855.03;10252689;28;20505;-69
2023/03/25 12:36:04;;;;;;;7.75;5.07;;;;;;;9.76;100.00;99840.28;10289123;28;20037;-71
2023/03/25 12:41:34;;;;;;;8.50;5.20;;;;;;;9.55;100.00;99834.81;10296314;28;20409;-73
2023/03/25 12:47:24;;;;;;;8.50;4.75;;;;;;;9.35;100.00;99821.94;10303866;28;20127;-73
2023/03/25 12:52:46;;;;;;;8.48;4.38;;;;;;;8.87;100.00;99829.44;10286869;28;20074;-73
2023/03/25 12:57:50;;;;;;;10.07;4.97;;;;;;;8.55;100.00;99856.16;10297319;28;20136;-74
2023/03/25 13:03:11;;;;;;;4.97;4.05;;;;;;;8.41;100.00;99866.47;10297064;28;20131;-73
2023/03/25 13:08:26;;;;;;;9.10;4.80;;;;;;;8.58;100.00;99850.06;10308759;28;20422;-73
2023/03/25 13:13:25;;;;;;;6.68;5.05;;;;;;;8.58;100.00;99849.28;10304140;28;20050;-73
2023/03/25 13:18:34;;;;;;;9.57;5.60;;;;;;;8.43;100.00;99847.88;10303881;28;20044;-73
2023/03/25 13:23:34;;;;;;;7.18;4.90;;;;;;;8.31;100.00;99851.25;10298882;28;20484;-72
2023/03/25 13:28:37;;;;;;;10.15;5.85;;;;;;;8.24;100.00;99872.72;10299584;28;20056;-72
2023/03/25 13:33:39;;;;;;;8.90;5.10;;;;;;;7.92;100.00;99893.06;10301143;28;20048;-72
2023/03/25 13:38:48;;;;;;;10.90;5.40;;;;;;;8.12;100.00;99876.09;10300499;28;20037;-73
2023/03/25 13:43:55;;;;;;;10.45;4.93;;;;;;;8.79;100.00;99882.06;10302881;28;20095;-73
2023/03/25 13:49:01;;;;;;;6.57;4.80;;;;;;;8.53;100.00;99876.69;10295622;28;20139;-73
2023/03/25 13:54:13;;;;;;;6.78;4.78;;;;;;;8.29;100.00;99869.03;10303818;28;20055;-70
2023/03/25 13:59:24;;;;;;;6.78;4.15;;;;;;;8.18;100.00;99863.09;10298580;28;20048;-73
2023/03/25 14:04:59;;;;;;;5.68;4.00;;;;;;;8.19;100.00;99860.06;10293281;28;20116;-73
2023/03/25 14:10:26;;;;;;;4.35;3.25;;;;;;;8.04;100.00;99863.28;10292811;28;20052;-72
2023/03/25 14:15:29;;;;;;;5.75;4.35;;;;;;;7.87;100.00;99863.31;10305398;28;20411;-72
2023/03/25 14:20:28;;;;;;;;;;;;;;;7.82;100.00;99858.00;10294978;28;20045;-72
2023/03/25 14:25:58;;;;;;;4.10;3.65;;;;;;;7.71;100.00;99880.09;10301380;28;20297;-73
2023/03/25 14:31:13;;;;;;;5.65;4.00;;;;;;;7.70;100.00;99886.63;10293417;28;20048;-72
2023/03/25 14:36:10;;;;;;;5.22;4.40;;;;;;;7.72;100.00;99884.41;10298509;28;20086;-73
2023/03/25 14:41:08;;;;;;;9.30;4.80;;;;;;;7.68;100.00;99878.03;10291745;28;20073;-73
2023/03/25 14:46:11;;;;;;;7.50;4.78;;;;;;;7.64;100.00;99887.94;10298806;28;20430;-73
2023/03/25 14:51:27;;;;;;;7.03;5.20;;;;;;;7.92;100.00;99865.84;10298567;28;20411;-73
2023/03/25 14:56:31;;;;;;;10.93;7.00;;;;;;;8.21;100.00;99868.72;10287818;28;20040;-73
2023/03/25 15:01:33;;;;;;;9.10;5.25;;;;;;;8.22;100.00;99870.31;10279222;28;20045;-74
2023/03/25 15:06:33;;;;;;;7.90;5.47;;;;;;;8.28;100.00;99867.41;10270626;28;20049;-72
2023/03/25 15:11:36;;;;;;;5.65;4.70;;;;;;;8.13;100.00;99874.97;10290919;28;20049;-72
2023/03/25 15:16:36;;;;;;;8.75;4.95;;;;;;;7.89;100.00;99877.38;10287165;28;20556;-73
2023/03/25 15:21:55;;;;;;;8.48;5.32;;;;;;;7.72;100.00;99870.78;10304456;28;20041;-72
2023/03/25 15:26:54;;;;;;;7.97;4.80;;;;;;;7.59;100.00;99858.16;10290299;28;20053;-72
2023/03/25 15:32:06;;;;;;;7.47;4.68;;;;;;;7.56;100.00;99858.78;10287566;28;20044;-72
2023/03/25 15:37:27;;;;;;;8.93;5.45;;;;;;;8.02;100.00;99827.41;10304158;28;20076;-72
2023/03/25 15:43:04;;;;;;;10.18;4.22;;;;;;;10.51;100.00;99796.50;10301475;28;20127;-72
2023/03/25 15:48:19;;;;;;;5.32;4.00;;;;;;;9.99;100.00;99786.09;10302035;28;20074;-72
2023/03/25 15:53:52;;;;;;;6.18;4.20;;;;;;;8.64;100.00;99799.72;10293337;28;20438;-72
2023/03/25 15:58:55;;;;;;;6.03;4.68;;;;;;;8.26;100.00;99787.97;10287500;28;20079;-72
2023/03/25 16:04:19;;;;;;;7.13;4.03;;;;;;;7.99;100.00;99800.84;10294004;28;20107;-72
2023/03/25 16:09:19;;;;;;;7.65;5.43;;;;;;;7.78;100.00;99806.94;10289061;28;20044;-70
2023/03/25 16:14:20;;;;;;;5.93;4.63;;;;;;;7.77;100.00;99797.19;10298781;28;20984;-70
2023/03/25 16:19:20;;;;;;;5.78;4.78;;;;;;;7.75;100.00;99806.78;10292377;28;20076;-71
2023/03/25 16:24:22;;;;;;;6.00;5.38;;;;;;;7.83;100.00;99813.34;10289997;28;20080;-70
2023/03/25 16:29:24;;;;;;;7.85;6.30;;;;;;;7.87;100.00;99819.75;10297924;28;20472;-70
2023/03/25 16:34:22;;;;;;;7.75;5.72;;;;;;;7.79;100.00;99843.91;10300140;28;20072;-72
2023/03/25 16:39:20;;;;;;;9.27;5.90;;;;;;;7.67;100.00;99846.47;10307997;28;20542;-72
2023/03/25 16:44:20;;;;;;;8.48;6.13;;;;;;;7.47;100.00;99877.00;10290677;28;20037;-72
2023/03/25 16:49:30;;;;;;;8.60;6.18;;;;;;;7.07;100.00;99863.47;10301311;28;20044;-72
2023/03/25 16:54:35;;;;;;;6.40;4.68;;;;;;;6.93;100.00;99869.81;10304257;28;20594;-72
2023/03/25 16:59:33;;;;;;;5.30;4.18;;;;;;;6.77;100.00;99860.47;10284589;28;20140;-72
2023/03/25 17:04:40;;;;;;;4.97;4.47;;;;;;;6.69;100.00;99858.53;10285621;28;20044;-73
2023/03/25 17:09:41;;;;;;;5.10;4.70;;;;;;;6.69;100.00;99859.34;10292943;28;20052;-72
2023/03/25 17:14:42;;;;;;;9.18;5.00;;;;;;;6.62;100.00;99852.75;10307740;28;20040;-72
2023/03/25 17:19:45;;;;;;;5.75;4.70;;;;;;;6.59;100.00;99823.50;10309188;28;20502;-72
2023/03/25 17:24:43;;;;;;;;;;;;;;;6.60;100.00;99825.09;10310744;28;20044;-72
2023/03/25 17:30:32;;;;;;;5.65;4.75;;;;;;;6.60;100.00;99816.97;10301316;28;19943;-72
2023/03/25 17:35:30;;;;;;;5.75;5.20;;;;;;;6.62;100.00;99814.72;10290747;28;20057;-72
2023/03/25 17:40:27;;;;;;;5.75;5.25;;;;;;;6.65;100.00;99814.88;10304326;28;20046;-73
2023/03/25 17:45:24;;;;;;;7.78;5.72;;;;;;;6.69;100.00;99820.50;10300566;28;20125;-71
2023/03/25 17:50:24;;;;;;;5.65;5.15;;;;;;;6.70;100.00;99819.38;10285860;28;20114;-69
2023/03/25 17:55:21;;;;;;;6.10;5.25;;;;;;;6.64;100.00;99823.38;10297680;28;20107;-70
2023/03/25 18:00:20;;;;;;;5.38;4.88;;;;;;;6.64;100.00;99829.59;10300325;28;20060;-69
2023/03/25 18:05:17;;;;;;;6.05;4.88;;;;;;;6.61;100.00;99818.53;10279720;28;20350;-69
2023/03/25 18:10:17;;;;;;;6.07;5.47;;;;;;;6.58;100.00;99824.63;10300859;28;20060;-69
2023/03/25 18:15:14;;;;;;;6.45;5.80;;;;;;;6.57;100.00;99823.81;10287494;28;20053;-70
2023/03/25 18:20:17;;;;;;;6.50;5.78;;;;;;;6.57;100.00;99823.00;10276035;28;20056;-69
2023/03/25 18:25:14;;;;;;;8.57;6.35;;;;;;;6.55;100.00;99822.53;10283298;28;20053;-69
2023/03/25 18:30:21;;;;;;;7.35;5.85;;;;;;;6.58;100.00;99821.91;10289128;28;20133;-70
2023/03/25 18:35:18;;;;;;;8.68;5.40;;;;;;;6.53;100.00;99837.22;10291502;28;20076;-70
2023/03/25 18:40:23;;;;;;;6.35;4.93;;;;;;;6.44;100.00;99836.38;10290815;28;20070;-72
2023/03/25 18:45:22;;;;;;;6.28;4.82;;;;;;;6.43;100.00;99834.78;10289172;28;20575;-72
2023/03/25 18:50:36;;;;;;;5.50;4.32;;;;;;;6.39;100.00;99844.66;10280871;28;20122;-72
2023/03/25 18:55:36;;;;;;;7.82;4.82;;;;;;;6.35;100.00;99854.53;10287321;28;20049;-72
2023/03/25 19:00:38;;;;;;;4.93;3.80;;;;;;;6.41;100.00;99856.00;10295838;28;20098;-73
2023/03/25 19:05:36;;;;;;;5.40;3.92;;;;;;;6.41;100.00;99875.00;10295683;28;20045;-74
2023/03/25 19:10:33;;;;;;;8.75;4.47;;;;;;;6.42;100.00;99876.59;10297508;28;20052;-74
2023/03/25 19:15:31;;;;;;;6.57;4.15;;;;;;;6.41;100.00;99872.28;10301526;28;20078;-72
2023/03/25 19:20:34;;;;;;;6.10;4.00;;;;;;;6.44;100.00;99879.00;10310605;28;20041;-72
2023/03/25 19:25:31;;;;;;;8.40;4.70;;;;;;;6.47;100.00;99881.91;10300950;28;20054;-72
2023/03/25 19:30:28;;;;;;;6.22;4.25;;;;;;;6.44;100.00;99887.97;10294250;28;20401;-71
2023/03/25 19:35:27;;;;;;;8.40;5.00;;;;;;;6.47;100.00;99890.03;10294274;28;20048;-72
2023/03/25 19:40:27;;;;;;;8.45;4.70;;;;;;;6.47;100.00;99895.47;10292837;28;20555;-73
2023/03/25 19:45:25;;;;;;;7.00;4.22;;;;;;;6.48;100.00;99897.09;10300767;28;20139;-73
2023/03/25 19:50:28;;;;;;;9.68;4.60;;;;;;;6.44;100.00;99906.97;10307109;28;20059;-72
2023/03/25 19:55:25;;;;;;;14.95;4.57;;;;;;;6.46;100.00;99899.31;10298235;28;20074;-72
2023/03/25 20:00:25;;;;;;;7.90;4.18;;;;;;;6.44;100.00;99901.53;10298805;28;21539;-72
2023/03/25 20:05:23;;;;;;;9.88;4.38;;;;;;;6.43;100.00;99904.56;10299868;28;20485;-73
2023/03/25 20:10:22;;;;;;;10.57;5.65;;;;;;;6.41;100.00;99906.81;10306805;28;20049;-73
2023/03/25 20:15:20;;;;;;;8.77;4.80;;;;;;;6.36;100.00;99932.16;10298407;28;20052;-71
2023/03/25 20:20:18;;;;;;;15.07;4.97;;;;;;;6.30;100.00;99911.66;10300615;28;20057;-72
2023/03/25 20:25:16;;;;;;;11.57;7.05;;;;;;;6.31;100.00;99918.69;10292021;28;20444;-72
2023/03/25 20:30:15;;;;;;;12.98;4.95;;;;;;;6.38;100.00;99919.06;10290155;28;20053;-71
2023/03/25 20:35:13;;;;;;;13.82;6.50;;;;;;;6.37;100.00;99927.53;10293572;28;20068;-71
2023/03/25 20:40:13;;;;;;;15.82;5.15;;;;;;;6.34;100.00;99933.59;10297443;28;20088;-72
2023/03/25 20:45:11;;;;;;;10.07;4.53;;;;;;;6.26;100.00;99944.03;10291101;28;20049;-72
2023/03/25 20:50:11;;;;;;;9.85;4.70;;;;;;;6.23;100.00;99949.31;10297426;28;20074;-72
2023/03/25 20:55:08;;;;;;;9.45;5.95;;;;;;;6.20;100.00;99963.50;10293278;28;20041;-72
2023/03/25 21:00:07;;;;;;;10.25;4.35;;;;;;;6.20;100.00;99958.06;10289058;28;20050;-72
2023/03/25 21:05:05;;;;;;;13.52;5.32;;;;;;;6.22;100.00;99961.25;10284789;28;20136;-72
2023/03/25 21:10:02;;;;;;;13.10;5.40;;;;;;;6.13;100.00;99971.22;10297370;28;20506;-71
2023/03/25 21:15:00;;;;;;;10.70;4.45;;;;;;;6.16;100.00;99970.66;10291953;28;20068;-73
2023/03/25 21:19:56;;;;;;;12.98;4.45;;;;;;;6.17;100.00;99973.03;10293938;28;20040;-71
2023/03/25 21:24:53;;;;;;;12.88;5.03;;;;;;;6.20;100.00;99982.50;10288253;28;20047;-72
2023/03/25 21:29:51;;;;;;;21.08;5.22;;;;;;;6.20;100.00;99990.66;10293564;28;20040;-71
2023/03/25 21:34:47;;;;;;;9.57;4.55;;;;;;;6.27;100.00;99982.88;10282341;28;20049;-72
2023/03/25 21:39:46;;;;;;;10.35;4.70;;;;;;;6.26;100.00;99992.13;10294660;28;20076;-72
2023/03/25 21:44:42;;;;;;;16.75;7.38;;;;;;;6.26;100.00;99997.53;10293078;28;20045;-71
2023/03/25 21:49:41;;;;;;;14.55;4.63;;;;;;;6.31;100.00;99997.41;10290418;28;20060;-71
2023/03/25 21:54:42;;;;;;;16.30;5.95;;;;;;;6.34;100.00;100004.97;10289344;28;20123;-70
2023/03/25 21:59:39;;;;;;;14.98;6.47;;;;;;;6.33;100.00;100011.50;10292309;28;20453;-70
2023/03/25 22:04:36;;;;;;;18.33;5.32;;;;;;;6.34;100.00;99999.53;10294184;28;20082;-70
2023/03/25 22:09:33;;;;;;;16.77;6.32;;;;;;;6.38;100.00;100005.94;10291597;28;20101;-71
2023/03/25 22:14:30;;;;;;;15.88;5.43;;;;;;;6.31;100.00;100017.25;10305751;28;20053;-70
2023/03/25 22:19:26;;;;;;;14.52;5.78;;;;;;;6.30;100.00;100017.56;10290778;28;20059;-70
2023/03/25 22:24:22;;;;;;;15.48;5.85;;;;;;;6.21;100.00;100024.81;10298747;28;20081;-72
2023/03/25 22:29:19;;;;;;;15.95;5.93;;;;;;;6.27;100.00;100031.75;10289144;28;20098;-76
2023/03/25 22:34:16;;;;;;;13.80;5.10;;;;;;;6.29;100.00;100024.09;10297781;28;20047;-76
2023/03/25 22:39:12;;;;;;;19.63;6.07;;;;;;;6.32;100.00;100039.78;10304281;28;20529;-75
2023/03/25 22:44:09;;;;;;;14.07;5.43;;;;;;;6.40;100.00;100040.94;10301589;28;20047;-76
2023/03/25 22:49:06;;;;;;;16.73;6.25;;;;;;;6.41;100.00;100037.13;10311658;28;20062;-75
2023/03/25 22:54:04;;;;;;;13.55;5.57;;;;;;;6.34;100.00;100043.00;10318104;28;20048;-78
2023/03/25 22:59:01;;;;;;;11.90;4.93;;;;;;;6.32;100.00;100047.91;10311965;28;20044;-75
2023/03/25 23:03:58;;;;;;;15.05;6.25;;;;;;;6.30;100.00;100063.72;10317929;28;20044;-75
2023/03/25 23:08:56;;;;;;;10.10;5.18;;;;;;;6.27;100.00;100065.13;10306374;28;20068;-74
2023/03/25 23:13:57;;;;;;;10.70;4.38;;;;;;;6.22;100.00;100072.56;10309336;28;20514;-74
2023/03/25 23:18:54;;;;;;;11.02;3.92;;;;;;;6.18;100.00;100071.56;10301928;28;20072;-75